createdAt,value
2023-04-06T00:01:39.197Z,94668.13
2023-04-06T00:04:09.197Z,94662.91
2023-04-06T00:06:39.762Z,94665.31
2023-04-06T00:09:09.143Z,94667.81
2023-04-06T00:11:38.440Z,94658.59
2023-04-06T00:14:07.631Z,94654.59
2023-04-06T00:16:36.829Z,94664.19
2023-04-06T00:19:05.945Z,94658.00
2023-04-06T00:21:35.182Z,94646.41
2023-04-06T00:24:06.331Z,94642.97
2023-04-06T00:26:35.406Z,94646.88
2023-04-06T00:29:04.903Z,94641.38
2023-04-06T00:31:34.049Z,94632.78
2023-04-06T00:34:03.512Z,94632.97
2023-04-06T00:36:32.648Z,94632.16
2023-04-06T00:39:01.747Z,94630.94
2023-04-06T00:41:32.601Z,94628.69
2023-04-06T00:44:01.861Z,94628.31
2023-04-06T00:46:31.491Z,94624.28
2023-04-06T00:49:00.686Z,94621.16
2023-04-06T00:51:30.031Z,94613.72
2023-04-06T00:53:59.060Z,94610.66
2023-04-06T00:56:28.774Z,94611.22
2023-04-06T00:58:59.428Z,94606.81
2023-04-06T01:01:29.898Z,94605.91
2023-04-06T01:04:04.315Z,94612.00
2023-04-06T01:06:41.395Z,94610.22
2023-04-06T01:09:10.757Z,94612.91
2023-04-06T01:11:40.545Z,94613.25
2023-04-06T01:14:14.634Z,94597.94
2023-04-06T01:16:56.512Z,94604.72
2023-04-06T01:19:30.911Z,94604.13
2023-04-06T01:22:01.274Z,94595.28
2023-04-06T01:24:34.976Z,94587.84
2023-04-06T01:27:07.016Z,94592.88
2023-04-06T01:30:02.286Z,94594.97
2023-04-06T01:32:44.468Z,94589.25
2023-04-06T01:35:16.014Z,94586.16
2023-04-06T01:37:55.066Z,94586.44
2023-04-06T01:40:32.602Z,94576.72
2023-04-06T01:43:01.867Z,94581.03
2023-04-06T01:45:36.902Z,94579.94
2023-04-06T01:48:16.308Z,94579.72
2023-04-06T01:50:46.181Z,94576.34
2023-04-06T01:53:19.978Z,94575.84
2023-04-06T01:55:51.725Z,94570.72
2023-04-06T01:58:34.932Z,94576.53
2023-04-06T02:01:04.926Z,94572.81
2023-04-06T02:03:45.475Z,94571.75
2023-04-06T02:06:15.537Z,94567.44
2023-04-06T02:08:44.742Z,94569.88
2023-04-06T02:11:15.346Z,94574.84
2023-04-06T02:13:51.700Z,94572.00
2023-04-06T02:16:41.090Z,94565.91
2023-04-06T02:19:10.607Z,94569.25
2023-04-06T02:21:40.027Z,94567.47
2023-04-06T02:24:09.591Z,94574.31
2023-04-06T02:26:40.085Z,94574.69
2023-04-06T02:29:09.496Z,94575.81
2023-04-06T02:31:38.840Z,94568.88
2023-04-06T02:34:12.276Z,94570.88
2023-04-06T02:36:45.269Z,94574.22
2023-04-06T02:39:14.960Z,94570.25
2023-04-06T02:41:45.876Z,94575.41
2023-04-06T02:44:18.706Z,94576.72
2023-04-06T02:46:48.089Z,94577.13
2023-04-06T02:49:17.466Z,94578.94
2023-04-06T02:51:50.877Z,94583.09
2023-04-06T02:54:25.354Z,94584.53
2023-04-06T02:56:56.295Z,94581.66
2023-04-06T02:59:34.258Z,94584.28
2023-04-06T03:02:13.594Z,94578.81
2023-04-06T03:04:43.204Z,94574.66
2023-04-06T03:07:22.757Z,94583.50
2023-04-06T03:09:52.264Z,94585.59
2023-04-06T03:12:23.046Z,94590.84
2023-04-06T03:15:30.841Z,94594.13
2023-04-06T03:18:13.360Z,94578.59
2023-04-06T03:20:46.443Z,94580.34
2023-04-06T03:23:17.559Z,94575.31
2023-04-06T03:25:48.261Z,94579.44
2023-04-06T03:28:22.852Z,94584.34
2023-04-06T03:30:56.620Z,94578.31
2023-04-06T03:33:44.522Z,94583.81
2023-04-06T03:36:19.954Z,94579.81
2023-04-06T03:38:49.669Z,94577.59
2023-04-06T03:41:18.915Z,94578.63
2023-04-06T03:44:01.092Z,94580.00
2023-04-06T03:46:30.293Z,94572.13
2023-04-06T03:49:01.614Z,94572.91
2023-04-06T03:51:32.180Z,94573.38
2023-04-06T03:54:01.368Z,94567.28
2023-04-06T03:56:30.678Z,94565.25
2023-04-06T03:59:01.355Z,94569.31
2023-04-06T04:01:30.747Z,94567.16
2023-04-06T04:04:00.057Z,94561.94
2023-04-06T04:06:29.402Z,94560.47
2023-04-06T04:08:58.708Z,94559.94
2023-04-06T04:11:27.874Z,94559.75
2023-04-06T04:14:01.794Z,94556.97
2023-04-06T04:16:31.871Z,94569.66
2023-04-06T04:19:01.290Z,94557.59
2023-04-06T04:21:33.229Z,94563.88
2023-04-06T04:24:08.011Z,94562.38
2023-04-06T04:26:38.902Z,94566.16
2023-04-06T04:29:10.843Z,94565.97
2023-04-06T04:31:41.099Z,94565.56
2023-04-06T04:34:18.056Z,94568.06
2023-04-06T04:36:47.227Z,94569.88
2023-04-06T04:39:24.661Z,94572.69
2023-04-06T04:42:00.856Z,94569.75
2023-04-06T04:44:34.144Z,94567.66
2023-04-06T04:47:03.974Z,94564.78
2023-04-06T04:49:42.985Z,94565.06
2023-04-06T04:52:13.540Z,94570.47
2023-04-06T04:54:52.409Z,94560.53
2023-04-06T04:57:27.457Z,94569.19
2023-04-06T04:59:58.545Z,94566.50
2023-04-06T05:02:27.774Z,94572.81
2023-04-06T05:05:20.257Z,94569.00
2023-04-06T05:07:49.513Z,94568.41
2023-04-06T05:10:29.185Z,94565.59
2023-04-06T05:13:02.336Z,94567.97
2023-04-06T05:15:33.080Z,94562.63
2023-04-06T05:18:09.705Z,94563.13
2023-04-06T05:20:41.036Z,94562.91
2023-04-06T05:23:10.182Z,94559.03
2023-04-06T05:25:39.645Z,94569.75
2023-04-06T05:28:17.949Z,94562.63
2023-04-06T05:30:48.667Z,94563.53
2023-04-06T05:33:19.292Z,94561.91
2023-04-06T05:36:09.453Z,94551.34
2023-04-06T05:38:42.836Z,94553.81
2023-04-06T05:41:38.259Z,94555.44
2023-04-06T05:44:09.505Z,94559.00
2023-04-06T05:46:40.561Z,94553.00
2023-04-06T05:49:13.966Z,94555.06
2023-04-06T05:51:43.124Z,94550.84
2023-04-06T05:54:12.468Z,94538.03
2023-04-06T05:56:42.721Z,94544.94
2023-04-06T05:59:14.463Z,94545.34
2023-04-06T06:01:45.306Z,94549.78
2023-04-06T06:04:16.246Z,94549.16
2023-04-06T06:06:46.311Z,94559.25
2023-04-06T06:09:39.392Z,94557.56
2023-04-06T06:12:32.778Z,94551.56
2023-04-06T06:15:03.079Z,94545.09
2023-04-06T06:17:38.995Z,94547.53
2023-04-06T06:20:10.120Z,94547.84
2023-04-06T06:22:41.370Z,94552.63
2023-04-06T06:25:14.813Z,94543.75
2023-04-06T06:27:44.327Z,94547.41
2023-04-06T06:30:14.235Z,94545.66
2023-04-06T06:32:46.084Z,94550.50
2023-04-06T06:35:15.330Z,94547.28
2023-04-06T06:37:44.459Z,94547.94
2023-04-06T06:40:19.163Z,94548.13
2023-04-06T06:42:50.564Z,94548.31
2023-04-06T06:45:34.696Z,94549.56
2023-04-06T06:48:05.412Z,94544.91
2023-04-06T06:50:34.780Z,94552.56
2023-04-06T06:53:03.980Z,94550.16
2023-04-06T06:55:33.248Z,94541.28
2023-04-06T06:58:02.323Z,94548.28
2023-04-06T07:00:31.426Z,94556.91
2023-04-06T07:03:01.378Z,94553.56
2023-04-06T07:05:32.646Z,94559.38
2023-04-06T07:08:01.732Z,94557.97
2023-04-06T07:10:31.222Z,94556.88
2023-04-06T07:13:00.624Z,94565.16
2023-04-06T07:15:31.290Z,94562.47
2023-04-06T07:18:00.788Z,94568.38
2023-04-06T07:20:31.516Z,94561.38
2023-04-06T07:23:00.758Z,94565.00
2023-04-06T07:25:30.070Z,94566.00
2023-04-06T07:27:59.536Z,94563.22
2023-04-06T07:30:31.699Z,94565.72
2023-04-06T07:33:02.550Z,94556.06
2023-04-06T07:35:33.805Z,94563.72
2023-04-06T07:38:03.295Z,94565.13
2023-04-06T07:40:34.236Z,94564.78
2023-04-06T07:43:03.617Z,94555.31
2023-04-06T07:45:33.790Z,94558.81
2023-04-06T07:48:04.468Z,94559.63
2023-04-06T07:50:36.558Z,94555.94
2023-04-06T07:53:06.446Z,94561.66
2023-04-06T07:55:35.757Z,94561.47
2023-04-06T07:58:04.672Z,94564.66
2023-04-06T08:00:36.620Z,94564.28
2023-04-06T08:03:08.301Z,94561.47
2023-04-06T08:05:39.084Z,94560.28
2023-04-06T08:08:08.032Z,94569.16
2023-04-06T08:10:37.179Z,94563.94
2023-04-06T08:13:06.022Z,94560.47
2023-04-06T08:15:34.956Z,94559.09
2023-04-06T08:18:03.996Z,94564.13
2023-04-06T08:20:33.058Z,94559.31
2023-04-06T08:23:03.626Z,94569.19
2023-04-06T08:25:32.559Z,94568.00
2023-04-06T08:28:01.654Z,94570.59
2023-04-06T08:30:31.565Z,94571.00
2023-04-06T08:33:00.679Z,94569.81
2023-04-06T08:35:30.112Z,94571.00
2023-04-06T08:38:00.281Z,94570.19
2023-04-06T08:40:30.789Z,94573.59
2023-04-06T08:43:05.108Z,94577.88
2023-04-06T08:45:34.242Z,94583.50
2023-04-06T08:48:05.083Z,94584.72
2023-04-06T08:50:35.214Z,94586.72
2023-04-06T08:53:04.795Z,94577.25
2023-04-06T08:55:36.163Z,94577.47
2023-04-06T08:58:06.984Z,94575.47
2023-04-06T09:00:40.161Z,94581.34
2023-04-06T09:03:11.041Z,94575.25
2023-04-06T09:05:42.146Z,94586.53
2023-04-06T09:08:11.517Z,94581.47
2023-04-06T09:10:43.892Z,94573.81
2023-04-06T09:13:13.031Z,94575.41
2023-04-06T09:15:42.353Z,94572.78
2023-04-06T09:18:11.662Z,94576.25
2023-04-06T09:20:41.180Z,94569.78
2023-04-06T09:23:20.549Z,94575.44
2023-04-06T09:25:51.390Z,94578.25
2023-04-06T09:28:20.517Z,94574.44
2023-04-06T09:30:51.845Z,94571.59
2023-04-06T09:33:26.374Z,94569.97
2023-04-06T09:35:55.753Z,94571.75
2023-04-06T09:38:24.941Z,94576.19
2023-04-06T09:41:01.256Z,94565.09
2023-04-06T09:43:31.727Z,94568.69
2023-04-06T09:46:05.279Z,94570.84
2023-04-06T09:48:38.054Z,94572.34
2023-04-06T09:51:09.089Z,94565.44
2023-04-06T09:53:41.725Z,94560.91
2023-04-06T09:56:15.963Z,94569.19
2023-04-06T09:58:48.655Z,94556.41
2023-04-06T10:01:24.659Z,94566.09
2023-04-06T10:04:01.948Z,94560.91
2023-04-06T10:06:36.523Z,94562.94
2023-04-06T10:09:09.222Z,94561.59
2023-04-06T10:11:40.818Z,94553.13
2023-04-06T10:14:10.569Z,94559.44
2023-04-06T10:16:40.218Z,94558.56
2023-04-06T10:19:15.775Z,94557.38
2023-04-06T10:21:49.133Z,94549.75
2023-04-06T10:24:19.261Z,94543.06
2023-04-06T10:27:00.384Z,94549.88
2023-04-06T10:29:29.732Z,94540.63
2023-04-06T10:31:58.912Z,94538.81
2023-04-06T10:34:37.813Z,94530.25
2023-04-06T10:37:15.162Z,94524.34
2023-04-06T10:39:56.084Z,94534.13
2023-04-06T10:42:38.797Z,94524.94
2023-04-06T10:45:10.003Z,94516.06
2023-04-06T10:47:42.793Z,94521.81
2023-04-06T10:50:16.966Z,94516.69
2023-04-06T10:52:48.145Z,94520.53
2023-04-06T10:55:18.226Z,94507.22
2023-04-06T10:57:50.652Z,94506.50
2023-04-06T11:00:21.169Z,94500.94
2023-04-06T11:02:50.504Z,94502.38
2023-04-06T11:05:19.783Z,94501.03
2023-04-06T11:07:49.026Z,94499.84
2023-04-06T11:10:24.834Z,94504.25
2023-04-06T11:12:59.290Z,94503.00
2023-04-06T11:15:28.552Z,94493.19
2023-04-06T11:17:57.800Z,94492.91
2023-04-06T11:20:26.965Z,94495.44
2023-04-06T11:22:56.270Z,94490.56
2023-04-06T11:25:25.760Z,94490.16
2023-04-06T11:27:56.769Z,94493.41
2023-04-06T11:30:27.546Z,94493.34
2023-04-06T11:33:04.051Z,94493.28
2023-04-06T11:35:35.292Z,94492.38
2023-04-06T11:38:06.395Z,94491.78
2023-04-06T11:40:35.723Z,94489.16
2023-04-06T11:43:08.293Z,94489.09
2023-04-06T11:45:44.988Z,94484.47
2023-04-06T11:48:24.617Z,94481.91
2023-04-06T11:50:59.333Z,94484.47
2023-04-06T11:53:31.873Z,94474.59
2023-04-06T11:56:01.267Z,94479.66
2023-04-06T11:58:30.385Z,94476.50
2023-04-06T12:01:07.589Z,94475.84
2023-04-06T12:03:36.834Z,94470.72
2023-04-06T12:06:06.531Z,94478.00
2023-04-06T12:08:35.675Z,94469.16
2023-04-06T12:11:06.229Z,94464.72
2023-04-06T12:13:35.461Z,94462.66
2023-04-06T12:16:04.634Z,94470.94
2023-04-06T12:18:35.433Z,94466.75
2023-04-06T12:21:04.494Z,94474.81
2023-04-06T12:23:33.775Z,94473.59
2023-04-06T12:26:03.477Z,94471.19
2023-04-06T12:28:32.753Z,94461.44
2023-04-06T12:31:02.313Z,94469.13
2023-04-06T12:33:31.685Z,94464.31
2023-04-06T12:36:02.452Z,94467.53
2023-04-06T12:38:31.602Z,94464.22
2023-04-06T12:41:00.718Z,94464.47
2023-04-06T12:43:29.859Z,94464.09
2023-04-06T12:45:59.209Z,94460.09
2023-04-06T12:48:28.645Z,94463.13
2023-04-06T12:50:58.557Z,94470.44
2023-04-06T12:53:30.169Z,94457.47
2023-04-06T12:56:00.154Z,94460.41
2023-04-06T12:58:29.538Z,94451.69
2023-04-06T13:01:04.163Z,94461.06
2023-04-06T13:03:33.471Z,94454.22
2023-04-06T13:06:03.540Z,94455.41
2023-04-06T13:08:34.327Z,94446.47
2023-04-06T13:11:03.399Z,94444.38
2023-04-06T13:13:32.890Z,94432.22
2023-04-06T13:16:03.913Z,94436.84
2023-04-06T13:18:33.752Z,94428.97
2023-04-06T13:21:02.979Z,94435.66
2023-04-06T13:23:33.959Z,94434.78
2023-04-06T13:26:04.474Z,94444.50
2023-04-06T13:28:34.339Z,94433.69
2023-04-06T13:31:04.787Z,94427.75
2023-04-06T13:33:34.548Z,94436.78
2023-04-06T13:36:03.823Z,94422.78
2023-04-06T13:38:34.902Z,94426.09
2023-04-06T13:41:04.237Z,94427.59
2023-04-06T13:43:33.391Z,94428.00
2023-04-06T13:46:02.694Z,94432.75
2023-04-06T13:48:31.936Z,94427.13
2023-04-06T13:51:09.967Z,94440.41
2023-04-06T13:53:41.818Z,94434.94
2023-04-06T13:56:11.260Z,94432.53
2023-04-06T13:58:40.465Z,94434.19
2023-04-06T14:01:11.402Z,94428.81
2023-04-06T14:03:43.635Z,94430.91
2023-04-06T14:08:48.081Z,94439.53
2023-04-06T14:11:17.552Z,94427.13
2023-04-06T14:13:46.855Z,94435.53
2023-04-06T14:16:16.582Z,94427.06
2023-04-06T14:18:45.610Z,94425.38
2023-04-06T14:21:14.747Z,94439.16
2023-04-06T14:23:43.963Z,94437.25
2023-04-06T14:26:15.127Z,94436.66
2023-04-06T14:28:44.518Z,94438.44
2023-04-06T14:31:16.225Z,94435.59
2023-04-06T14:33:45.819Z,94448.50
2023-04-06T14:36:15.156Z,94441.56
2023-04-06T14:38:45.225Z,94438.72
2023-04-06T14:41:19.678Z,94435.84
2023-04-06T14:43:49.711Z,94438.81
2023-04-06T14:46:19.202Z,94452.44
2023-04-06T14:48:48.267Z,94445.38
2023-04-06T14:51:17.970Z,94451.81
2023-04-06T14:53:47.595Z,94444.13
2023-04-06T14:56:23.833Z,94450.38
2023-04-06T14:58:53.382Z,94445.78
2023-04-06T15:01:23.043Z,94448.69
2023-04-06T15:03:52.719Z,94457.78
2023-04-06T15:06:22.627Z,94450.84
2023-04-06T15:08:52.294Z,94453.34
2023-04-06T15:11:22.895Z,94446.63
2023-04-06T15:13:52.154Z,94445.81
2023-04-06T15:16:21.235Z,94455.00
2023-04-06T15:18:50.311Z,94448.69
2023-04-06T15:21:21.361Z,94451.19
2023-04-06T15:23:51.202Z,94461.66
2023-04-06T15:26:21.494Z,94452.22
2023-04-06T15:28:52.491Z,94462.97
2023-04-06T15:31:36.064Z,94461.97
2023-04-06T15:34:09.332Z,94458.75
2023-04-06T15:36:38.789Z,94461.78
2023-04-06T15:39:10.081Z,94457.19
2023-04-06T15:41:39.384Z,94469.41
2023-04-06T15:44:10.040Z,94461.28
2023-04-06T15:46:39.125Z,94467.72
2023-04-06T15:49:08.221Z,94465.25
2023-04-06T15:51:38.080Z,94468.16
2023-04-06T15:54:07.413Z,94467.34
2023-04-06T15:56:36.599Z,94468.81
2023-04-06T15:59:06.629Z,94471.34
2023-04-06T16:01:37.289Z,94471.19
2023-04-06T16:04:09.097Z,94465.38
2023-04-06T16:06:38.380Z,94469.16
2023-04-06T16:09:07.642Z,94463.91
2023-04-06T16:11:37.219Z,94476.22
2023-04-06T16:14:06.386Z,94465.41
2023-04-06T16:16:37.053Z,94472.72
2023-04-06T16:19:06.227Z,94480.81
2023-04-06T16:21:35.414Z,94476.22
2023-04-06T16:24:05.584Z,94479.47
2023-04-06T16:26:34.830Z,94480.94
2023-04-06T16:29:03.938Z,94483.09
2023-04-06T16:31:33.455Z,94486.16
2023-04-06T16:34:04.186Z,94494.84
2023-04-06T16:36:33.989Z,94485.34
2023-04-06T16:39:03.495Z,94486.38
2023-04-06T16:41:34.433Z,94492.00
2023-04-06T16:44:03.845Z,94492.63
2023-04-06T16:46:33.092Z,94508.78
2023-04-06T16:49:04.164Z,94500.13
2023-04-06T16:51:33.452Z,94502.53
2023-04-06T16:54:03.573Z,94500.97
2023-04-06T16:56:33.896Z,94502.38
2023-04-06T16:59:03.009Z,94502.38
2023-04-06T17:01:32.346Z,94494.13
2023-04-06T17:04:02.195Z,94506.84
2023-04-06T17:06:32.875Z,94508.28
2023-04-06T17:09:02.022Z,94507.03
2023-04-06T17:11:43.711Z,94512.88
2023-04-06T17:14:15.973Z,94513.09
2023-04-06T17:16:45.109Z,94519.75
2023-04-06T17:19:14.310Z,94522.97
2023-04-06T17:21:45.014Z,94526.41
2023-04-06T17:24:14.256Z,94529.09
2023-04-06T17:26:43.838Z,94535.91
2023-04-06T17:29:13.201Z,94538.75
2023-04-06T17:31:42.154Z,94536.72
2023-04-06T17:34:11.617Z,94536.47
2023-04-06T17:36:40.853Z,94534.69
2023-04-06T17:39:12.199Z,94546.78
2023-04-06T17:41:41.341Z,94548.81
2023-04-06T17:44:10.464Z,94542.19
2023-04-06T17:46:39.908Z,94550.66
2023-04-06T17:49:09.669Z,94551.84
2023-04-06T17:51:38.801Z,94557.09
2023-04-06T17:54:08.041Z,94551.03
2023-04-06T17:56:38.802Z,94552.84
2023-04-06T17:59:10.706Z,94558.06
2023-04-06T18:01:41.525Z,94560.88
2023-04-06T18:04:10.788Z,94565.72
2023-04-06T18:06:39.902Z,94563.84
2023-04-06T18:09:09.325Z,94566.91
2023-04-06T18:11:40.404Z,94573.56
2023-04-06T18:14:11.315Z,94576.19
2023-04-06T18:16:41.218Z,94584.22
2023-04-06T18:19:10.752Z,94587.47
2023-04-06T18:21:40.010Z,94588.28
2023-04-06T18:24:12.348Z,94586.88
2023-04-06T18:26:45.733Z,94586.03
2023-04-06T18:29:14.835Z,94590.72
2023-04-06T18:31:50.956Z,94586.28
2023-04-06T18:34:20.040Z,94592.56
2023-04-06T18:36:49.458Z,94599.19
2023-04-06T18:39:18.525Z,94592.16
2023-04-06T18:41:49.107Z,94592.34
2023-04-06T18:44:18.152Z,94588.13
2023-04-06T18:46:48.102Z,94593.75
2023-04-06T18:49:17.494Z,94591.75
2023-04-06T18:51:46.466Z,94587.31
2023-04-06T18:54:15.930Z,94589.28
2023-04-06T18:56:44.967Z,94600.00
2023-04-06T18:59:17.658Z,94595.53
2023-04-06T19:01:51.218Z,94601.41
2023-04-06T19:04:20.440Z,94601.66
2023-04-06T19:06:49.728Z,94601.00
2023-04-06T19:09:18.826Z,94597.81
2023-04-06T19:11:47.792Z,94603.25
2023-04-06T19:14:18.270Z,94599.41
2023-04-06T19:16:52.540Z,94601.25
2023-04-06T19:19:22.022Z,94595.81
2023-04-06T19:21:51.141Z,94595.63
2023-04-06T19:24:20.327Z,94599.03
2023-04-06T19:26:49.369Z,94599.25
2023-04-06T19:29:19.852Z,94598.03
2023-04-06T19:31:49.059Z,94604.47
2023-04-06T19:34:18.695Z,94592.81
2023-04-06T19:36:47.994Z,94599.44
2023-04-06T19:39:18.227Z,94597.22
2023-04-06T19:41:47.593Z,94602.47
2023-04-06T19:44:16.626Z,94603.28
2023-04-06T19:46:47.598Z,94605.31
2023-04-06T19:49:16.627Z,94613.16
2023-04-06T19:51:45.753Z,94596.44
2023-04-06T19:54:14.841Z,94606.50
2023-04-06T19:56:44.024Z,94608.31
2023-04-06T19:59:13.147Z,94612.75
2023-04-06T20:01:42.385Z,94620.19
2023-04-06T20:04:13.834Z,94616.38
2023-04-06T20:06:43.619Z,94622.63
2023-04-06T20:09:15.811Z,94625.63
2023-04-06T20:11:45.050Z,94622.22
2023-04-06T20:14:14.109Z,94628.03
2023-04-06T20:16:46.491Z,94625.22
2023-04-06T20:19:16.989Z,94618.78
2023-04-06T20:21:46.961Z,94624.22
2023-04-06T20:24:16.233Z,94629.69
2023-04-06T20:26:45.229Z,94623.59
2023-04-06T20:29:14.322Z,94628.44
2023-04-06T20:31:43.345Z,94629.25
2023-04-06T20:34:12.531Z,94630.84
2023-04-06T20:36:43.507Z,94631.88
2023-04-06T20:39:13.403Z,94634.72
2023-04-06T20:41:42.585Z,94640.34
2023-04-06T20:44:11.571Z,94632.47
2023-04-06T20:46:40.901Z,94637.91
2023-04-06T20:49:10.232Z,94633.06
2023-04-06T20:51:39.341Z,94637.09
2023-04-06T20:54:10.002Z,94633.91
2023-04-06T20:56:39.241Z,94632.66
2023-04-06T20:59:08.337Z,94628.88
2023-04-06T21:01:37.779Z,94632.09
2023-04-06T21:04:07.043Z,94632.28
2023-04-06T21:06:36.199Z,94640.94
2023-04-06T21:09:05.362Z,94646.00
2023-04-06T21:11:35.986Z,94641.13
2023-04-06T21:14:05.109Z,94633.47
2023-04-06T21:16:56.362Z,94635.72
2023-04-06T21:19:25.685Z,94634.72
2023-04-06T21:21:55.234Z,94637.09
2023-04-06T21:24:24.337Z,94639.94
2023-04-06T21:26:54.926Z,94633.06
2023-04-06T21:29:23.970Z,94635.91
2023-04-06T21:31:55.784Z,94640.91
2023-04-06T21:34:24.913Z,94634.88
2023-04-06T21:36:54.088Z,94635.84
2023-04-06T21:39:24.500Z,94635.03
2023-04-06T21:41:55.121Z,94632.22
2023-04-06T21:44:24.120Z,94637.44
2023-04-06T21:46:53.099Z,94635.84
2023-04-06T21:49:22.264Z,94644.88
2023-04-06T21:51:51.284Z,94651.53
2023-04-06T21:54:20.633Z,94640.44
2023-04-06T21:56:50.002Z,94644.25
2023-04-06T21:59:20.978Z,94638.84
2023-04-06T22:01:50.035Z,94633.78
2023-04-06T22:04:19.467Z,94639.59
2023-04-06T22:06:48.686Z,94638.22
2023-04-06T22:09:17.817Z,94637.56
2023-04-06T22:11:46.818Z,94638.97
2023-04-06T22:14:16.087Z,94640.53
2023-04-06T22:16:46.864Z,94640.34
2023-04-06T22:19:15.955Z,94637.50
2023-04-06T22:21:46.170Z,94621.78
2023-04-06T22:24:15.755Z,94639.28
2023-04-06T22:26:44.832Z,94634.78
2023-04-06T22:29:13.855Z,94629.91
2023-04-06T22:31:44.211Z,94635.50
2023-04-06T22:34:16.868Z,94629.84
2023-04-06T22:36:46.114Z,94626.75
2023-04-06T22:39:15.216Z,94629.50
2023-04-06T22:41:44.270Z,94630.28
2023-04-06T22:44:13.294Z,94631.28
2023-04-06T22:46:42.384Z,94622.41
2023-04-06T22:49:11.477Z,94628.22
2023-04-06T22:51:42.585Z,94624.44
2023-04-06T22:54:12.077Z,94629.47
2023-04-06T22:56:41.314Z,94627.03
2023-04-06T22:59:10.883Z,94623.69
2023-04-06T23:01:40.107Z,94622.06
2023-04-06T23:04:09.375Z,94618.78
2023-04-06T23:06:38.476Z,94620.41
2023-04-06T23:09:08.838Z,94619.88
2023-04-06T23:11:37.957Z,94621.28
2023-04-06T23:14:07.236Z,94617.84
2023-04-06T23:16:36.322Z,94612.25
2023-04-06T23:19:05.283Z,94608.84
2023-04-06T23:21:34.365Z,94610.22
2023-04-06T23:24:03.728Z,94617.31
2023-04-06T23:26:34.386Z,94606.00
2023-04-06T23:29:03.526Z,94604.78
2023-04-06T23:31:32.485Z,94597.75
2023-04-06T23:34:01.831Z,94602.19
2023-04-06T23:36:31.926Z,94597.75
2023-04-06T23:39:01.182Z,94596.69
2023-04-06T23:41:30.351Z,94603.53
2023-04-06T23:44:00.816Z,94606.59
2023-04-06T23:46:29.799Z,94599.50
2023-04-06T23:48:58.910Z,94605.59
2023-04-06T23:51:27.918Z,94601.41
2023-04-06T23:53:58.273Z,94594.38
2023-04-06T23:56:27.458Z,94595.97
2023-04-06T23:58:56.732Z,94602.56
